sensor_id;sensor_type;location;lat;lon;timestamp;temperature;humidity
14771;DHT22;7477;45.222;5.688;2024-03-17T00:02:21;10.80;99.90
14771;DHT22;7477;45.222;5.688;2024-03-17T00:05:40;10.70;99.90
14771;DHT22;7477;45.222;5.688;2024-03-17T00:09:00;10.60;99.90
14771;DHT22;7477;45.222;5.688;2024-03-17T00:12:25;10.60;99.90
14771;DHT22;7477;45.222;5.688;2024-03-17T00:15:45;10.60;99.90
14771;DHT22;7477;45.222;5.688;2024-03-17T00:19:05;10.60;99.90
14771;DHT22;7477;45.222;5.688;2024-03-17T00:22:24;10.60;99.90
14771;DHT22;7477;45.222;5.688;2024-03-17T00:25:44;10.50;99.90
14771;DHT22;7477;45.222;5.688;2024-03-17T00:29:04;10.50;99.90
14771;DHT22;7477;45.222;5.688;2024-03-17T00:32:23;10.40;99.90
14771;DHT22;7477;45.222;5.688;2024-03-17T00:35:43;10.40;99.90
14771;DHT22;7477;45.222;5.688;2024-03-17T00:39:02;10.40;99.90
14771;DHT22;7477;45.222;5.688;2024-03-17T00:42:22;10.30;99.90
14771;DHT22;7477;45.222;5.688;2024-03-17T00:45:41;10.30;99.90
14771;DHT22;7477;45.222;5.688;2024-03-17T00:49:00;10.30;99.90
14771;DHT22;7477;45.222;5.688;2024-03-17T00:52:20;10.20;99.90
14771;DHT22;7477;45.222;5.688;2024-03-17T00:55:39;10.10;99.90
14771;DHT22;7477;45.222;5.688;2024-03-17T00:58:59;10.10;99.90
14771;DHT22;7477;45.222;5.688;2024-03-17T01:02:18;10.10;99.90
14771;DHT22;7477;45.222;5.688;2024-03-17T01:05:38;10.10;99.90
14771;DHT22;7477;45.222;5.688;2024-03-17T01:09:01;10.10;99.90
14771;DHT22;7477;45.222;5.688;2024-03-17T01:12:20;10.10;99.90
14771;DHT22;7477;45.222;5.688;2024-03-17T01:15:39;10.10;99.90
14771;DHT22;7477;45.222;5.688;2024-03-17T01:18:59;10.00;99.90
14771;DHT22;7477;45.222;5.688;2024-03-17T01:22:18;10.00;99.90
14771;DHT22;7477;45.222;5.688;2024-03-17T01:25:38;9.90;99.90
14771;DHT22;7477;45.222;5.688;2024-03-17T01:28:57;9.90;99.90
14771;DHT22;7477;45.222;5.688;2024-03-17T01:32:16;9.90;99.90
14771;DHT22;7477;45.222;5.688;2024-03-17T01:35:38;9.90;99.90
14771;DHT22;7477;45.222;5.688;2024-03-17T01:38:57;9.80;99.90
14771;DHT22;7477;45.222;5.688;2024-03-17T01:42:16;9.80;99.90
14771;DHT22;7477;45.222;5.688;2024-03-17T01:45:36;9.80;99.90
14771;DHT22;7477;45.222;5.688;2024-03-17T01:48:55;9.70;99.90
14771;DHT22;7477;45.222;5.688;2024-03-17T01:52:15;9.90;99.90
14771;DHT22;7477;45.222;5.688;2024-03-17T01:55:38;10.60;99.90
14771;DHT22;7477;45.222;5.688;2024-03-17T01:58:58;10.90;99.90
14771;DHT22;7477;45.222;5.688;2024-03-17T02:02:18;11.00;99.90
14771;DHT22;7477;45.222;5.688;2024-03-17T02:05:38;11.50;99.90
14771;DHT22;7477;45.222;5.688;2024-03-17T02:08:57;11.30;99.90
14771;DHT22;7477;45.222;5.688;2024-03-17T02:12:16;11.70;99.90
14771;DHT22;7477;45.222;5.688;2024-03-17T02:15:35;12.00;99.90
14771;DHT22;7477;45.222;5.688;2024-03-17T02:18:55;11.20;99.90
14771;DHT22;7477;45.222;5.688;2024-03-17T02:22:15;11.10;99.90
14771;DHT22;7477;45.222;5.688;2024-03-17T02:25:36;10.70;99.90
14771;DHT22;7477;45.222;5.688;2024-03-17T02:28:56;10.40;99.90
14771;DHT22;7477;45.222;5.688;2024-03-17T02:32:15;10.40;99.90
14771;DHT22;7477;45.222;5.688;2024-03-17T02:35:34;10.20;99.90
14771;DHT22;7477;45.222;5.688;2024-03-17T02:38:53;10.10;99.90
14771;DHT22;7477;45.222;5.688;2024-03-17T02:42:31;10.00;99.90
14771;DHT22;7477;45.222;5.688;2024-03-17T02:45:50;10.00;99.90
14771;DHT22;7477;45.222;5.688;2024-03-17T02:49:09;10.10;99.90
14771;DHT22;7477;45.222;5.688;2024-03-17T02:52:32;10.00;99.90
14771;DHT22;7477;45.222;5.688;2024-03-17T02:55:53;9.80;99.90
14771;DHT22;7477;45.222;5.688;2024-03-17T02:59:12;9.80;99.90
14771;DHT22;7477;45.222;5.688;2024-03-17T03:02:31;9.70;99.90
14771;DHT22;7477;45.222;5.688;2024-03-17T03:05:50;9.70;99.90
14771;DHT22;7477;45.222;5.688;2024-03-17T03:09:11;9.80;99.90
14771;DHT22;7477;45.222;5.688;2024-03-17T03:12:38;9.80;99.90
14771;DHT22;7477;45.222;5.688;2024-03-17T03:15:57;9.80;99.90
14771;DHT22;7477;45.222;5.688;2024-03-17T03:19:17;9.80;99.90
14771;DHT22;7477;45.222;5.688;2024-03-17T03:22:37;9.90;99.90
14771;DHT22;7477;45.222;5.688;2024-03-17T03:25:57;10.00;99.90
14771;DHT22;7477;45.222;5.688;2024-03-17T03:29:17;10.20;99.90
14771;DHT22;7477;45.222;5.688;2024-03-17T03:32:37;10.20;99.90
14771;DHT22;7477;45.222;5.688;2024-03-17T03:35:57;10.60;99.90
14771;DHT22;7477;45.222;5.688;2024-03-17T03:39:17;11.50;99.90
14771;DHT22;7477;45.222;5.688;2024-03-17T03:42:37;11.90;99.90
14771;DHT22;7477;45.222;5.688;2024-03-17T03:45:57;11.90;99.90
14771;DHT22;7477;45.222;5.688;2024-03-17T03:49:17;11.20;99.90
14771;DHT22;7477;45.222;5.688;2024-03-17T03:52:38;10.50;99.90
14771;DHT22;7477;45.222;5.688;2024-03-17T03:55:59;10.30;99.90
14771;DHT22;7477;45.222;5.688;2024-03-17T03:59:20;10.30;99.90
14771;DHT22;7477;45.222;5.688;2024-03-17T04:02:40;10.20;99.90
14771;DHT22;7477;45.222;5.688;2024-03-17T04:06:03;10.10;99.90
14771;DHT22;7477;45.222;5.688;2024-03-17T04:09:24;10.10;99.90
14771;DHT22;7477;45.222;5.688;2024-03-17T04:12:43;10.10;99.90
14771;DHT22;7477;45.222;5.688;2024-03-17T04:16:06;10.00;99.90
14771;DHT22;7477;45.222;5.688;2024-03-17T04:19:25;10.00;99.90
14771;DHT22;7477;45.222;5.688;2024-03-17T04:22:45;10.30;99.90
14771;DHT22;7477;45.222;5.688;2024-03-17T04:26:04;10.70;99.90
14771;DHT22;7477;45.222;5.688;2024-03-17T04:29:26;10.80;99.90
14771;DHT22;7477;45.222;5.688;2024-03-17T04:32:45;10.40;99.90
14771;DHT22;7477;45.222;5.688;2024-03-17T04:36:04;10.10;99.90
14771;DHT22;7477;45.222;5.688;2024-03-17T04:39:25;10.00;99.90
14771;DHT22;7477;45.222;5.688;2024-03-17T04:42:44;10.20;99.90
14771;DHT22;7477;45.222;5.688;2024-03-17T04:46:04;10.00;99.90
14771;DHT22;7477;45.222;5.688;2024-03-17T04:49:25;10.00;99.90
14771;DHT22;7477;45.222;5.688;2024-03-17T04:52:44;10.10;99.90
14771;DHT22;7477;45.222;5.688;2024-03-17T04:56:05;10.00;99.90
14771;DHT22;7477;45.222;5.688;2024-03-17T04:59:24;10.00;99.90
14771;DHT22;7477;45.222;5.688;2024-03-17T05:02:44;10.00;99.90
14771;DHT22;7477;45.222;5.688;2024-03-17T05:06:05;10.00;99.90
14771;DHT22;7477;45.222;5.688;2024-03-17T05:09:24;10.10;99.90
14771;DHT22;7477;45.222;5.688;2024-03-17T05:12:44;10.00;99.90
14771;DHT22;7477;45.222;5.688;2024-03-17T05:16:03;10.00;99.90
14771;DHT22;7477;45.222;5.688;2024-03-17T05:19:23;10.00;99.90
14771;DHT22;7477;45.222;5.688;2024-03-17T05:22:42;10.00;99.90
14771;DHT22;7477;45.222;5.688;2024-03-17T05:26:04;10.20;99.90
14771;DHT22;7477;45.222;5.688;2024-03-17T05:29:24;10.10;99.90
14771;DHT22;7477;45.222;5.688;2024-03-17T05:32:43;10.10;99.90
14771;DHT22;7477;45.222;5.688;2024-03-17T05:36:03;10.00;99.90
14771;DHT22;7477;45.222;5.688;2024-03-17T05:39:23;10.00;99.90
14771;DHT22;7477;45.222;5.688;2024-03-17T05:42:42;10.00;99.90
14771;DHT22;7477;45.222;5.688;2024-03-17T05:46:06;10.00;99.90
14771;DHT22;7477;45.222;5.688;2024-03-17T05:49:26;10.10;99.90
14771;DHT22;7477;45.222;5.688;2024-03-17T05:52:45;10.10;99.90
14771;DHT22;7477;45.222;5.688;2024-03-17T05:56:04;10.10;99.90
14771;DHT22;7477;45.222;5.688;2024-03-17T05:59:23;10.30;99.90
14771;DHT22;7477;45.222;5.688;2024-03-17T06:02:44;10.50;99.90
14771;DHT22;7477;45.222;5.688;2024-03-17T06:06:04;10.50;99.90
14771;DHT22;7477;45.222;5.688;2024-03-17T06:09:26;10.40;99.90
14771;DHT22;7477;45.222;5.688;2024-03-17T06:12:46;10.20;99.90
14771;DHT22;7477;45.222;5.688;2024-03-17T06:16:05;10.10;99.90
14771;DHT22;7477;45.222;5.688;2024-03-17T06:19:25;10.20;99.90
14771;DHT22;7477;45.222;5.688;2024-03-17T06:22:44;10.10;99.90
14771;DHT22;7477;45.222;5.688;2024-03-17T06:26:04;10.30;99.90
14771;DHT22;7477;45.222;5.688;2024-03-17T06:29:24;10.30;99.90
14771;DHT22;7477;45.222;5.688;2024-03-17T06:32:45;10.20;99.90
14771;DHT22;7477;45.222;5.688;2024-03-17T06:36:05;10.20;99.90
14771;DHT22;7477;45.222;5.688;2024-03-17T06:39:24;10.40;99.90
14771;DHT22;7477;45.222;5.688;2024-03-17T06:42:44;10.50;99.90
14771;DHT22;7477;45.222;5.688;2024-03-17T06:46:03;11.70;99.90
14771;DHT22;7477;45.222;5.688;2024-03-17T06:49:23;11.50;99.90
14771;DHT22;7477;45.222;5.688;2024-03-17T06:52:42;12.10;99.90
14771;DHT22;7477;45.222;5.688;2024-03-17T06:56:01;11.80;99.90
14771;DHT22;7477;45.222;5.688;2024-03-17T06:59:20;10.70;99.90
14771;DHT22;7477;45.222;5.688;2024-03-17T07:02:40;10.50;99.90
14771;DHT22;7477;45.222;5.688;2024-03-17T07:06:02;11.00;99.90
14771;DHT22;7477;45.222;5.688;2024-03-17T07:09:22;10.90;99.90
14771;DHT22;7477;45.222;5.688;2024-03-17T07:12:42;10.60;99.90
14771;DHT22;7477;45.222;5.688;2024-03-17T07:16:03;10.50;99.90
14771;DHT22;7477;45.222;5.688;2024-03-17T07:19:25;10.40;99.90
14771;DHT22;7477;45.222;5.688;2024-03-17T07:22:44;10.50;99.90
14771;DHT22;7477;45.222;5.688;2024-03-17T07:26:04;10.50;99.90
14771;DHT22;7477;45.222;5.688;2024-03-17T07:29:23;10.40;99.90
14771;DHT22;7477;45.222;5.688;2024-03-17T07:32:42;10.50;99.90
14771;DHT22;7477;45.222;5.688;2024-03-17T07:36:02;10.50;99.90
14771;DHT22;7477;45.222;5.688;2024-03-17T07:39:24;10.60;99.90
14771;DHT22;7477;45.222;5.688;2024-03-17T07:42:43;10.60;99.90
14771;DHT22;7477;45.222;5.688;2024-03-17T07:49:24;10.70;99.90
14771;DHT22;7477;45.222;5.688;2024-03-17T07:52:44;10.70;99.90
14771;DHT22;7477;45.222;5.688;2024-03-17T07:56:05;10.80;99.90
14771;DHT22;7477;45.222;5.688;2024-03-17T07:59:24;11.10;99.90
14771;DHT22;7477;45.222;5.688;2024-03-17T08:02:47;11.30;99.90
14771;DHT22;7477;45.222;5.688;2024-03-17T08:06:08;11.90;99.90
14771;DHT22;7477;45.222;5.688;2024-03-17T08:09:28;11.60;99.90
14771;DHT22;7477;45.222;5.688;2024-03-17T08:12:47;11.30;99.90
14771;DHT22;7477;45.222;5.688;2024-03-17T08:16:07;11.20;99.90
14771;DHT22;7477;45.222;5.688;2024-03-17T08:19:29;11.20;99.90
14771;DHT22;7477;45.222;5.688;2024-03-17T08:22:48;11.30;99.90
14771;DHT22;7477;45.222;5.688;2024-03-17T08:26:07;11.40;99.90
14771;DHT22;7477;45.222;5.688;2024-03-17T08:29:27;11.50;99.90
14771;DHT22;7477;45.222;5.688;2024-03-17T08:32:46;11.50;99.90
14771;DHT22;7477;45.222;5.688;2024-03-17T08:36:07;11.60;99.90
14771;DHT22;7477;45.222;5.688;2024-03-17T08:39:26;11.70;99.90
14771;DHT22;7477;45.222;5.688;2024-03-17T08:42:46;11.70;99.90
14771;DHT22;7477;45.222;5.688;2024-03-17T08:46:07;11.90;99.90
14771;DHT22;7477;45.222;5.688;2024-03-17T08:49:27;12.60;99.90
14771;DHT22;7477;45.222;5.688;2024-03-17T08:52:46;12.40;99.90
14771;DHT22;7477;45.222;5.688;2024-03-17T08:56:05;12.30;99.90
14771;DHT22;7477;45.222;5.688;2024-03-17T08:59:27;12.20;99.90
14771;DHT22;7477;45.222;5.688;2024-03-17T09:02:46;12.20;99.90
14771;DHT22;7477;45.222;5.688;2024-03-17T09:06:16;12.70;99.90
14771;DHT22;7477;45.222;5.688;2024-03-17T09:09:35;13.10;99.90
14771;DHT22;7477;45.222;5.688;2024-03-17T09:12:54;13.20;99.90
14771;DHT22;7477;45.222;5.688;2024-03-17T09:16:14;13.20;99.90
14771;DHT22;7477;45.222;5.688;2024-03-17T09:19:37;13.30;99.90
14771;DHT22;7477;45.222;5.688;2024-03-17T09:22:57;13.60;99.90
14771;DHT22;7477;45.222;5.688;2024-03-17T09:26:16;13.90;99.90
14771;DHT22;7477;45.222;5.688;2024-03-17T09:29:36;13.40;99.90
14771;DHT22;7477;45.222;5.688;2024-03-17T09:32:55;13.20;99.90
14771;DHT22;7477;45.222;5.688;2024-03-17T09:36:15;13.30;99.90
14771;DHT22;7477;45.222;5.688;2024-03-17T09:39:34;13.70;99.90
14771;DHT22;7477;45.222;5.688;2024-03-17T09:42:53;13.50;99.90
14771;DHT22;7477;45.222;5.688;2024-03-17T09:46:13;13.50;99.90
14771;DHT22;7477;45.222;5.688;2024-03-17T09:49:33;13.80;99.90
14771;DHT22;7477;45.222;5.688;2024-03-17T09:52:53;13.80;99.90
14771;DHT22;7477;45.222;5.688;2024-03-17T09:56:18;14.00;99.90
14771;DHT22;7477;45.222;5.688;2024-03-17T09:59:40;13.50;99.90
14771;DHT22;7477;45.222;5.688;2024-03-17T10:02:59;13.20;99.90
14771;DHT22;7477;45.222;5.688;2024-03-17T10:06:19;13.20;99.90
14771;DHT22;7477;45.222;5.688;2024-03-17T10:09:39;13.50;99.90
14771;DHT22;7477;45.222;5.688;2024-03-17T10:12:58;13.40;99.90
14771;DHT22;7477;45.222;5.688;2024-03-17T10:16:23;13.40;99.90
14771;DHT22;7477;45.222;5.688;2024-03-17T10:19:43;13.50;99.90
14771;DHT22;7477;45.222;5.688;2024-03-17T10:23:04;13.60;99.90
14771;DHT22;7477;45.222;5.688;2024-03-17T10:26:23;13.50;99.90
14771;DHT22;7477;45.222;5.688;2024-03-17T10:29:43;13.50;99.90
14771;DHT22;7477;45.222;5.688;2024-03-17T10:33:03;13.50;99.90
14771;DHT22;7477;45.222;5.688;2024-03-17T10:36:24;13.80;99.90
14771;DHT22;7477;45.222;5.688;2024-03-17T10:39:44;13.80;99.90
14771;DHT22;7477;45.222;5.688;2024-03-17T10:43:03;13.90;99.90
14771;DHT22;7477;45.222;5.688;2024-03-17T10:46:24;13.90;99.90
14771;DHT22;7477;45.222;5.688;2024-03-17T10:49:45;14.10;99.90
14771;DHT22;7477;45.222;5.688;2024-03-17T10:53:06;14.30;99.90
14771;DHT22;7477;45.222;5.688;2024-03-17T10:56:29;14.30;99.90
14771;DHT22;7477;45.222;5.688;2024-03-17T10:59:48;14.10;99.90
14771;DHT22;7477;45.222;5.688;2024-03-17T11:03:09;14.10;99.90
14771;DHT22;7477;45.222;5.688;2024-03-17T11:06:30;14.30;99.90
14771;DHT22;7477;45.222;5.688;2024-03-17T11:09:52;14.60;99.90
14771;DHT22;7477;45.222;5.688;2024-03-17T11:13:26;14.70;99.90
14771;DHT22;7477;45.222;5.688;2024-03-17T11:16:46;14.50;99.90
14771;DHT22;7477;45.222;5.688;2024-03-17T11:23:38;14.70;99.90
14771;DHT22;7477;45.222;5.688;2024-03-17T11:26:58;14.60;99.90
14771;DHT22;7477;45.222;5.688;2024-03-17T11:34:02;15.10;99.90
14771;DHT22;7477;45.222;5.688;2024-03-17T11:37:42;15.00;99.90
14771;DHT22;7477;45.222;5.688;2024-03-17T11:44:59;15.10;99.90
14771;DHT22;7477;45.222;5.688;2024-03-17T11:48:19;15.10;99.90
14771;DHT22;7477;45.222;5.688;2024-03-17T11:51:38;15.50;99.90
14771;DHT22;7477;45.222;5.688;2024-03-17T11:54:59;15.60;99.90
14771;DHT22;7477;45.222;5.688;2024-03-17T11:58:18;15.30;99.90
14771;DHT22;7477;45.222;5.688;2024-03-17T12:01:39;15.70;99.90
14771;DHT22;7477;45.222;5.688;2024-03-17T12:05:01;15.30;99.90
14771;DHT22;7477;45.222;5.688;2024-03-17T12:08:20;15.70;99.90
14771;DHT22;7477;45.222;5.688;2024-03-17T12:11:40;15.80;99.90
14771;DHT22;7477;45.222;5.688;2024-03-17T12:14:59;15.60;99.90
14771;DHT22;7477;45.222;5.688;2024-03-17T12:18:21;15.90;99.90
14771;DHT22;7477;45.222;5.688;2024-03-17T12:21:45;15.50;99.90
14771;DHT22;7477;45.222;5.688;2024-03-17T12:25:19;15.70;99.90
14771;DHT22;7477;45.222;5.688;2024-03-17T12:28:39;15.50;99.90
14771;DHT22;7477;45.222;5.688;2024-03-17T12:32:00;15.40;99.90
14771;DHT22;7477;45.222;5.688;2024-03-17T12:35:20;15.30;99.90
14771;DHT22;7477;45.222;5.688;2024-03-17T12:38:40;15.70;99.90
14771;DHT22;7477;45.222;5.688;2024-03-17T12:42:04;16.00;99.90
14771;DHT22;7477;45.222;5.688;2024-03-17T12:45:23;16.10;99.90
14771;DHT22;7477;45.222;5.688;2024-03-17T12:48:43;16.30;99.40
14771;DHT22;7477;45.222;5.688;2024-03-17T12:52:04;16.30;99.10
14771;DHT22;7477;45.222;5.688;2024-03-17T12:55:24;16.50;99.10
14771;DHT22;7477;45.222;5.688;2024-03-17T12:59:07;15.90;99.90
14771;DHT22;7477;45.222;5.688;2024-03-17T13:02:45;16.40;98.70
14771;DHT22;7477;45.222;5.688;2024-03-17T13:06:05;16.60;98.40
14771;DHT22;7477;45.222;5.688;2024-03-17T13:09:25;16.60;98.30
14771;DHT22;7477;45.222;5.688;2024-03-17T13:12:58;16.60;98.20
14771;DHT22;7477;45.222;5.688;2024-03-17T13:16:18;16.80;97.10
14771;DHT22;7477;45.222;5.688;2024-03-17T13:19:37;16.90;96.90
14771;DHT22;7477;45.222;5.688;2024-03-17T13:22:58;16.70;97.00
14771;DHT22;7477;45.222;5.688;2024-03-17T13:26:20;16.90;96.70
14771;DHT22;7477;45.222;5.688;2024-03-17T13:29:40;16.70;97.60
14771;DHT22;7477;45.222;5.688;2024-03-17T13:33:04;16.90;96.90
14771;DHT22;7477;45.222;5.688;2024-03-17T13:36:30;17.00;95.30
14771;DHT22;7477;45.222;5.688;2024-03-17T13:39:50;17.00;95.30
14771;DHT22;7477;45.222;5.688;2024-03-17T13:43:09;17.00;95.50
14771;DHT22;7477;45.222;5.688;2024-03-17T13:46:28;17.20;95.60
14771;DHT22;7477;45.222;5.688;2024-03-17T13:49:48;17.20;94.80
14771;DHT22;7477;45.222;5.688;2024-03-17T13:53:07;17.40;94.20
14771;DHT22;7477;45.222;5.688;2024-03-17T13:56:27;17.20;94.30
14771;DHT22;7477;45.222;5.688;2024-03-17T13:59:47;16.70;96.10
14771;DHT22;7477;45.222;5.688;2024-03-17T14:03:07;17.10;94.60
14771;DHT22;7477;45.222;5.688;2024-03-17T14:06:28;16.90;95.30
14771;DHT22;7477;45.222;5.688;2024-03-17T14:09:47;16.90;94.60
14771;DHT22;7477;45.222;5.688;2024-03-17T14:13:06;16.70;94.80
14771;DHT22;7477;45.222;5.688;2024-03-17T14:16:29;16.70;95.50
14771;DHT22;7477;45.222;5.688;2024-03-17T14:19:50;17.00;93.80
14771;DHT22;7477;45.222;5.688;2024-03-17T14:23:09;16.80;93.80
14771;DHT22;7477;45.222;5.688;2024-03-17T14:26:28;16.70;94.20
14771;DHT22;7477;45.222;5.688;2024-03-17T14:29:47;16.80;93.80
14771;DHT22;7477;45.222;5.688;2024-03-17T14:33:07;16.90;93.10
14771;DHT22;7477;45.222;5.688;2024-03-17T14:36:26;16.90;92.50
14771;DHT22;7477;45.222;5.688;2024-03-17T14:39:47;16.80;92.60
14771;DHT22;7477;45.222;5.688;2024-03-17T14:43:06;16.90;92.00
14771;DHT22;7477;45.222;5.688;2024-03-17T14:46:26;17.10;91.40
14771;DHT22;7477;45.222;5.688;2024-03-17T14:49:46;17.10;91.10
14771;DHT22;7477;45.222;5.688;2024-03-17T14:53:05;17.00;91.60
14771;DHT22;7477;45.222;5.688;2024-03-17T14:56:24;17.00;91.70
14771;DHT22;7477;45.222;5.688;2024-03-17T14:59:44;16.80;92.30
14771;DHT22;7477;45.222;5.688;2024-03-17T15:03:04;16.60;93.20
14771;DHT22;7477;45.222;5.688;2024-03-17T15:06:26;16.80;93.30
14771;DHT22;7477;45.222;5.688;2024-03-17T15:09:46;17.10;91.50
14771;DHT22;7477;45.222;5.688;2024-03-17T15:13:06;17.40;91.80
14771;DHT22;7477;45.222;5.688;2024-03-17T15:16:26;17.00;92.70
14771;DHT22;7477;45.222;5.688;2024-03-17T15:19:48;17.30;92.50
14771;DHT22;7477;45.222;5.688;2024-03-17T15:23:08;16.90;93.00
14771;DHT22;7477;45.222;5.688;2024-03-17T15:26:27;17.30;91.20
14771;DHT22;7477;45.222;5.688;2024-03-17T15:29:46;17.10;91.50
14771;DHT22;7477;45.222;5.688;2024-03-17T15:33:05;16.90;92.40
14771;DHT22;7477;45.222;5.688;2024-03-17T15:36:25;17.10;92.20
14771;DHT22;7477;45.222;5.688;2024-03-17T15:39:44;17.60;90.60
14771;DHT22;7477;45.222;5.688;2024-03-17T15:43:04;17.30;90.60
14771;DHT22;7477;45.222;5.688;2024-03-17T15:46:23;17.50;90.10
14771;DHT22;7477;45.222;5.688;2024-03-17T15:49:42;17.40;90.20
14771;DHT22;7477;45.222;5.688;2024-03-17T15:53:03;17.20;89.70
14771;DHT22;7477;45.222;5.688;2024-03-17T15:56:23;17.00;90.40
14771;DHT22;7477;45.222;5.688;2024-03-17T15:59:45;17.00;90.30
14771;DHT22;7477;45.222;5.688;2024-03-17T16:03:05;16.80;90.60
14771;DHT22;7477;45.222;5.688;2024-03-17T16:06:24;16.70;90.50
14771;DHT22;7477;45.222;5.688;2024-03-17T16:09:43;16.60;90.70
14771;DHT22;7477;45.222;5.688;2024-03-17T16:13:03;16.60;90.30
14771;DHT22;7477;45.222;5.688;2024-03-17T16:16:23;16.60;90.00
14771;DHT22;7477;45.222;5.688;2024-03-17T16:19:48;16.90;90.00
14771;DHT22;7477;45.222;5.688;2024-03-17T16:23:07;16.90;90.30
14771;DHT22;7477;45.222;5.688;2024-03-17T16:26:27;16.90;90.10
14771;DHT22;7477;45.222;5.688;2024-03-17T16:29:47;16.90;90.80
14771;DHT22;7477;45.222;5.688;2024-03-17T16:33:06;16.90;90.80
14771;DHT22;7477;45.222;5.688;2024-03-17T16:36:26;16.90;90.80
14771;DHT22;7477;45.222;5.688;2024-03-17T16:39:45;16.80;91.00
14771;DHT22;7477;45.222;5.688;2024-03-17T16:43:04;16.80;91.10
14771;DHT22;7477;45.222;5.688;2024-03-17T16:49:55;16.60;91.80
14771;DHT22;7477;45.222;5.688;2024-03-17T16:53:16;16.60;92.00
14771;DHT22;7477;45.222;5.688;2024-03-17T16:56:36;16.60;92.70
14771;DHT22;7477;45.222;5.688;2024-03-17T16:59:56;16.60;92.70
14771;DHT22;7477;45.222;5.688;2024-03-17T17:03:16;16.60;92.70
14771;DHT22;7477;45.222;5.688;2024-03-17T17:06:35;16.50;93.20
14771;DHT22;7477;45.222;5.688;2024-03-17T17:09:55;16.40;93.50
14771;DHT22;7477;45.222;5.688;2024-03-17T17:13:14;16.40;94.10
14771;DHT22;7477;45.222;5.688;2024-03-17T17:16:33;16.30;95.50
14771;DHT22;7477;45.222;5.688;2024-03-17T17:19:54;16.20;95.60
14771;DHT22;7477;45.222;5.688;2024-03-17T17:23:13;16.20;96.60
14771;DHT22;7477;45.222;5.688;2024-03-17T17:26:35;16.10;97.40
14771;DHT22;7477;45.222;5.688;2024-03-17T17:29:55;16.10;98.60
14771;DHT22;7477;45.222;5.688;2024-03-17T17:33:14;15.90;98.70
14771;DHT22;7477;45.222;5.688;2024-03-17T17:36:34;15.90;99.90
14771;DHT22;7477;45.222;5.688;2024-03-17T17:39:53;15.80;99.90
14771;DHT22;7477;45.222;5.688;2024-03-17T17:43:12;15.80;99.90
14771;DHT22;7477;45.222;5.688;2024-03-17T17:46:31;15.60;99.90
14771;DHT22;7477;45.222;5.688;2024-03-17T17:49:50;15.60;99.90
14771;DHT22;7477;45.222;5.688;2024-03-17T17:53:10;15.50;99.90
14771;DHT22;7477;45.222;5.688;2024-03-17T17:56:29;15.50;99.90
14771;DHT22;7477;45.222;5.688;2024-03-17T17:59:48;15.40;99.90
14771;DHT22;7477;45.222;5.688;2024-03-17T18:03:07;15.40;99.90
14771;DHT22;7477;45.222;5.688;2024-03-17T18:06:27;15.40;99.90
14771;DHT22;7477;45.222;5.688;2024-03-17T18:09:46;15.40;99.90
14771;DHT22;7477;45.222;5.688;2024-03-17T18:13:06;15.40;99.90
14771;DHT22;7477;45.222;5.688;2024-03-17T18:16:26;15.30;99.90
14771;DHT22;7477;45.222;5.688;2024-03-17T18:19:45;15.30;99.90
14771;DHT22;7477;45.222;5.688;2024-03-17T18:23:05;15.30;99.90
14771;DHT22;7477;45.222;5.688;2024-03-17T18:26:25;15.20;99.90
14771;DHT22;7477;45.222;5.688;2024-03-17T18:29:44;15.10;99.90
14771;DHT22;7477;45.222;5.688;2024-03-17T18:33:03;15.10;99.90
14771;DHT22;7477;45.222;5.688;2024-03-17T18:36:23;15.00;99.90
14771;DHT22;7477;45.222;5.688;2024-03-17T18:39:42;14.90;99.90
14771;DHT22;7477;45.222;5.688;2024-03-17T18:43:06;14.90;99.90
14771;DHT22;7477;45.222;5.688;2024-03-17T18:46:26;14.90;99.90
14771;DHT22;7477;45.222;5.688;2024-03-17T18:49:45;14.90;99.90
14771;DHT22;7477;45.222;5.688;2024-03-17T18:53:08;14.80;99.90
14771;DHT22;7477;45.222;5.688;2024-03-17T18:56:28;14.80;99.90
14771;DHT22;7477;45.222;5.688;2024-03-17T18:59:51;14.70;99.90
14771;DHT22;7477;45.222;5.688;2024-03-17T19:03:11;14.70;99.90
14771;DHT22;7477;45.222;5.688;2024-03-17T19:06:30;14.60;99.90
14771;DHT22;7477;45.222;5.688;2024-03-17T19:09:50;14.50;99.90
14771;DHT22;7477;45.222;5.688;2024-03-17T19:13:10;14.50;99.90
14771;DHT22;7477;45.222;5.688;2024-03-17T19:16:29;14.50;99.90
14771;DHT22;7477;45.222;5.688;2024-03-17T19:19:48;14.50;99.90
14771;DHT22;7477;45.222;5.688;2024-03-17T19:23:07;14.40;99.90
14771;DHT22;7477;45.222;5.688;2024-03-17T19:26:26;14.40;99.90
14771;DHT22;7477;45.222;5.688;2024-03-17T19:29:48;14.40;99.90
14771;DHT22;7477;45.222;5.688;2024-03-17T19:33:08;14.40;99.90
14771;DHT22;7477;45.222;5.688;2024-03-17T19:36:27;14.70;99.90
14771;DHT22;7477;45.222;5.688;2024-03-17T19:39:46;14.50;99.90
14771;DHT22;7477;45.222;5.688;2024-03-17T19:43:05;14.40;99.90
14771;DHT22;7477;45.222;5.688;2024-03-17T19:46:27;14.30;99.90
14771;DHT22;7477;45.222;5.688;2024-03-17T19:49:49;14.30;99.90
14771;DHT22;7477;45.222;5.688;2024-03-17T19:53:09;14.30;99.90
14771;DHT22;7477;45.222;5.688;2024-03-17T19:56:29;14.30;99.90
14771;DHT22;7477;45.222;5.688;2024-03-17T19:59:48;14.30;99.90
14771;DHT22;7477;45.222;5.688;2024-03-17T20:03:08;14.30;99.90
14771;DHT22;7477;45.222;5.688;2024-03-17T20:06:27;14.30;99.90
14771;DHT22;7477;45.222;5.688;2024-03-17T20:09:46;14.20;99.90
14771;DHT22;7477;45.222;5.688;2024-03-17T20:13:06;14.20;99.90
14771;DHT22;7477;45.222;5.688;2024-03-17T20:16:25;14.20;99.90
14771;DHT22;7477;45.222;5.688;2024-03-17T20:19:46;14.20;99.90
14771;DHT22;7477;45.222;5.688;2024-03-17T20:23:05;14.20;99.90
14771;DHT22;7477;45.222;5.688;2024-03-17T20:26:24;14.10;99.90
14771;DHT22;7477;45.222;5.688;2024-03-17T20:29:48;14.10;99.90
14771;DHT22;7477;45.222;5.688;2024-03-17T20:33:07;14.10;99.90
14771;DHT22;7477;45.222;5.688;2024-03-17T20:36:27;14.10;99.90
14771;DHT22;7477;45.222;5.688;2024-03-17T20:39:46;14.00;99.90
14771;DHT22;7477;45.222;5.688;2024-03-17T20:43:06;14.00;99.90
14771;DHT22;7477;45.222;5.688;2024-03-17T20:46:26;13.90;99.90
14771;DHT22;7477;45.222;5.688;2024-03-17T20:49:45;13.90;99.90
14771;DHT22;7477;45.222;5.688;2024-03-17T20:53:04;14.00;99.90
14771;DHT22;7477;45.222;5.688;2024-03-17T20:56:26;13.90;99.90
14771;DHT22;7477;45.222;5.688;2024-03-17T20:59:46;13.80;99.90
14771;DHT22;7477;45.222;5.688;2024-03-17T21:03:05;13.80;99.90
14771;DHT22;7477;45.222;5.688;2024-03-17T21:06:24;13.90;99.90
14771;DHT22;7477;45.222;5.688;2024-03-17T21:09:47;14.10;99.90
14771;DHT22;7477;45.222;5.688;2024-03-17T21:13:07;14.00;99.90
14771;DHT22;7477;45.222;5.688;2024-03-17T21:16:26;14.00;99.90
14771;DHT22;7477;45.222;5.688;2024-03-17T21:19:45;14.00;99.90
14771;DHT22;7477;45.222;5.688;2024-03-17T21:23:04;14.00;99.90
14771;DHT22;7477;45.222;5.688;2024-03-17T21:26:24;14.00;99.90
14771;DHT22;7477;45.222;5.688;2024-03-17T21:29:43;14.00;99.90
14771;DHT22;7477;45.222;5.688;2024-03-17T21:33:05;14.10;99.90
14771;DHT22;7477;45.222;5.688;2024-03-17T21:36:24;14.10;99.90
14771;DHT22;7477;45.222;5.688;2024-03-17T21:39:43;14.00;99.90
14771;DHT22;7477;45.222;5.688;2024-03-17T21:43:04;14.10;99.90
14771;DHT22;7477;45.222;5.688;2024-03-17T21:46:23;14.10;99.90